Time;durP1;ratioP1;P1;durP2;ratioP2;P2;SDS_P1;SDS_P2;PMS_P1;PMS_P2;Temp;Humidity;BMP_temperature;BMP_pressure;BME280_temperature;BME280_humidity;BME280_pressure;Samples;Min_cycle;Max_cycle;Signal;HPM_P1;HPM_P2
2023/09/13 00:00:38;;;;;;;3.80;3.50;;;;;25.70;100106.00;;;;2085432;28;20212;-67
2023/09/13 00:01:38;;;;;;;4.20;3.80;;;;;25.70;100109.00;;;;2092635;28;20240;-67
2023/09/13 00:02:40;;;;;;;4.20;3.80;;;;;25.70;100102.00;;;;2095283;28;20212;-67
2023/09/13 00:03:41;;;;;;;3.87;3.57;;;;;25.70;100105.00;;;;2095370;28;20216;-67
2023/09/13 00:04:41;;;;;;;3.73;3.40;;;;;25.70;100107.00;;;;2095104;28;20462;-67
2023/09/13 00:05:42;;;;;;;3.30;3.00;;;;;25.70;100097.00;;;;2085623;28;20258;-67
2023/09/13 00:06:42;;;;;;;3.87;3.47;;;;;25.60;100109.00;;;;2096018;28;20212;-67
2023/09/13 00:07:43;;;;;;;3.40;3.10;;;;;25.60;100103.00;;;;2095692;28;20465;-67
2023/09/13 00:08:43;;;;;;;4.13;3.83;;;;;25.60;100105.00;;;;2095035;28;20212;-67
2023/09/13 00:09:43;;;;;;;3.77;3.47;;;;;25.60;100064.00;;;;2086162;28;20229;-67
2023/09/13 00:10:46;;;;;;;3.43;3.13;;;;;25.60;100105.00;;;;2076941;28;20227;-67
2023/09/13 00:11:47;;;;;;;3.90;3.50;;;;;25.60;100103.00;;;;2095143;28;20217;-67
2023/09/13 00:12:47;;;;;;;3.77;3.43;;;;;25.60;100106.00;;;;2095851;28;20447;-67
2023/09/13 00:13:47;;;;;;;4.00;3.60;;;;;25.60;100102.00;;;;2095093;28;20216;-67
2023/09/13 00:14:48;;;;;;;3.53;3.23;;;;;25.60;100104.00;;;;2093587;28;20240;-67
2023/09/13 00:15:48;;;;;;;3.53;3.23;;;;;25.60;100108.00;;;;2085249;28;20212;-67
2023/09/13 00:16:50;;;;;;;3.63;3.33;;;;;25.60;100106.00;;;;2084848;28;20228;-67
2023/09/13 00:17:50;;;;;;;3.80;3.50;;;;;25.60;100110.00;;;;2087988;28;20215;-67
2023/09/13 00:18:51;;;;;;;3.80;3.50;;;;;25.70;100110.00;;;;2085399;28;20455;-67
2023/09/13 00:19:51;;;;;;;3.93;3.50;;;;;25.60;100109.00;;;;2095663;28;20217;-67
2023/09/13 00:20:54;;;;;;;3.53;3.23;;;;;25.70;100106.00;;;;2086440;28;20499;-67
2023/09/13 00:21:55;;;;;;;3.80;3.50;;;;;25.60;100104.00;;;;2085673;28;20204;-67
2023/09/13 00:22:55;;;;;;;4.17;3.20;;;;;25.60;100105.00;;;;2094917;28;20504;-68
2023/09/13 00:23:55;;;;;;;3.30;3.00;;;;;25.60;100115.00;;;;2091326;28;20235;-68
2023/09/13 00:24:56;;;;;;;4.20;3.80;;;;;25.60;100110.00;;;;2095739;28;20215;-68
2023/09/13 00:25:56;;;;;;;3.80;3.50;;;;;25.60;100110.00;;;;2084594;28;20229;-68
2023/09/13 00:26:56;;;;;;;3.73;3.43;;;;;25.60;100120.00;;;;2096346;28;20211;-68
2023/09/13 00:27:57;;;;;;;3.90;3.60;;;;;25.60;100115.00;;;;2095494;28;20239;-68
2023/09/13 00:28:58;;;;;;;3.87;3.57;;;;;25.60;100123.00;;;;2099177;28;20211;-68
2023/09/13 00:29:58;;;;;;;4.20;3.80;;;;;25.60;100118.00;;;;2096207;28;20216;-68
2023/09/13 00:30:58;;;;;;;3.37;3.07;;;;;25.60;100118.00;;;;2084837;28;20462;-68
2023/09/13 00:32:00;;;;;;;3.60;3.30;;;;;25.60;100118.00;;;;2097063;28;20234;-68
2023/09/13 00:33:00;;;;;;;4.27;3.80;;;;;25.60;100119.00;;;;2095058;28;20220;-68
2023/09/13 00:34:01;;;;;;;3.97;3.60;;;;;25.60;100120.00;;;;2102558;28;20510;-68
2023/09/13 00:35:02;;;;;;;3.80;3.50;;;;;25.60;100119.00;;;;2087614;28;20213;-68
2023/09/13 00:36:03;;;;;;;3.70;3.40;;;;;25.50;100120.00;;;;2077189;28;20286;-68
2023/09/13 00:37:03;;;;;;;3.80;3.50;;;;;25.60;100123.00;;;;2100614;28;20942;-68
2023/09/13 00:38:04;;;;;;;4.50;4.10;;;;;25.60;100123.00;;;;2095294;28;20224;-68
2023/09/13 00:39:05;;;;;;;4.30;3.90;;;;;25.60;100121.00;;;;2097197;28;20247;-68
2023/09/13 00:40:07;;;;;;;4.07;3.77;;;;;25.60;100125.00;;;;2096409;28;20612;-68
2023/09/13 00:41:07;;;;;;;3.80;3.40;;;;;25.60;100125.00;;;;2086907;28;20446;-68
2023/09/13 00:42:08;;;;;;;4.20;3.27;;;;;25.60;100134.00;;;;2094891;28;20451;-68
2023/09/13 00:43:08;;;;;;;3.70;3.30;;;;;25.60;100136.00;;;;2096959;28;20289;-68
2023/09/13 00:44:08;;;;;;;3.93;3.63;;;;;25.60;100143.00;;;;2096911;28;20307;-68
2023/09/13 00:45:09;;;;;;;3.80;3.50;;;;;25.60;100139.00;;;;2092743;28;20219;-68
2023/09/13 00:46:09;;;;;;;3.90;3.50;;;;;25.60;100144.00;;;;2087145;28;20253;-68
2023/09/13 00:47:11;;;;;;;4.17;3.60;;;;;25.60;100147.00;;;;2097931;28;20278;-68
2023/09/13 00:48:12;;;;;;;4.27;3.87;;;;;25.60;100145.00;;;;2087747;28;20308;-68
2023/09/13 00:49:12;;;;;;;3.90;3.50;;;;;25.60;100143.00;;;;2071069;28;20992;-68
2023/09/13 00:50:14;;;;;;;3.90;3.53;;;;;25.60;100155.00;;;;2079850;28;20884;-68
2023/09/13 00:51:14;;;;;;;4.10;3.80;;;;;25.60;100147.00;;;;2086145;28;20215;-68
2023/09/13 00:52:15;;;;;;;4.10;3.70;;;;;25.60;100151.00;;;;2095770;28;20459;-68
2023/09/13 00:53:15;;;;;;;4.50;4.10;;;;;25.60;100148.00;;;;2079694;28;20280;-68
2023/09/13 00:54:15;;;;;;;4.07;3.77;;;;;25.60;100143.00;;;;2079470;28;20209;-68
2023/09/13 00:55:16;;;;;;;4.23;3.83;;;;;25.60;100150.00;;;;2083905;28;20209;-68
2023/09/13 00:56:16;;;;;;;4.00;3.60;;;;;25.60;100150.00;;;;2059914;28;20261;-68
2023/09/13 00:57:16;;;;;;;3.87;3.57;;;;;25.60;100154.00;;;;2077892;28;20212;-68
2023/09/13 00:58:18;;;;;;;4.40;4.00;;;;;25.60;100129.00;;;;2079072;28;20211;-68
2023/09/13 00:59:18;;;;;;;4.60;4.20;;;;;25.60;100148.00;;;;2087355;28;20741;-68
2023/09/13 01:00:19;;;;;;;4.00;3.70;;;;;25.60;100147.00;;;;2094106;28;20500;-68
2023/09/13 01:01:19;;;;;;;4.20;3.90;;;;;25.60;100147.00;;;;2086755;28;20253;-68
2023/09/13 01:02:20;;;;;;;4.10;3.70;;;;;25.60;100147.00;;;;2087852;28;20235;-68
2023/09/13 01:03:20;;;;;;;3.90;3.60;;;;;25.60;100152.00;;;;2092144;28;20584;-68
2023/09/13 01:04:21;;;;;;;4.27;3.87;;;;;25.60;100147.00;;;;2079062;28;20590;-68
2023/09/13 01:05:21;;;;;;;4.57;4.17;;;;;25.60;100138.00;;;;2071667;28;20524;-68
2023/09/13 01:06:21;;;;;;;4.17;3.77;;;;;25.60;100143.00;;;;2060056;28;20580;-68
2023/09/13 01:07:22;;;;;;;4.33;3.97;;;;;25.60;100139.00;;;;2077795;28;20225;-68
2023/09/13 01:08:22;;;;;;;4.03;3.70;;;;;25.60;100149.00;;;;2082637;28;20244;-68
2023/09/13 01:09:23;;;;;;;3.70;3.40;;;;;25.60;100152.00;;;;2071063;28;20679;-68
2023/09/13 01:10:23;;;;;;;4.70;4.30;;;;;25.60;100148.00;;;;2079871;28;20217;-68
2023/09/13 01:11:23;;;;;;;4.13;3.73;;;;;25.60;100141.00;;;;2082939;28;20220;-68
2023/09/13 01:12:24;;;;;;;4.40;4.00;;;;;25.60;100141.00;;;;2087805;28;20272;-68
2023/09/13 01:13:24;;;;;;;4.13;3.80;;;;;25.60;100140.00;;;;2087413;28;20220;-68
2023/09/13 01:14:24;;;;;;;3.50;3.20;;;;;25.60;100142.00;;;;2074367;28;20217;-68
2023/09/13 01:15:28;;;;;;;4.43;4.03;;;;;25.60;100132.00;;;;2088436;28;20315;-68
2023/09/13 01:16:50;;;;;;;4.70;4.30;;;;;25.60;100142.00;;;;2081149;28;20295;-68
2023/09/13 01:18:10;;;;;;;4.32;3.92;;;;;25.60;100141.00;;;;2096104;28;20529;-68
2023/09/13 01:19:29;;;;;;;4.20;3.80;;;;;25.60;100135.00;;;;2086797;28;20215;-68
2023/09/13 01:20:58;;;;;;;4.47;4.10;;;;;25.60;100142.00;;;;2090816;28;21142;-68
2023/09/13 01:22:37;;;;;;;4.53;3.50;;;;;25.60;100124.00;;;;2093469;28;20979;-68
2023/09/13 01:24:14;;;;;;;3.97;3.67;;;;;25.60;100133.00;;;;2094594;28;20454;-68
2023/09/13 01:25:52;;;;;;;3.70;3.40;;;;;25.60;100132.00;;;;2089598;28;20439;-68
2023/09/13 01:27:16;;;;;;;4.20;3.80;;;;;25.60;100136.00;;;;2095883;28;20439;-68
2023/09/13 01:28:35;;;;;;;4.40;4.00;;;;;25.60;100130.00;;;;2089368;28;20526;-68
2023/09/13 01:29:35;;;;;;;4.10;3.70;;;;;25.60;100120.00;;;;2092442;28;20524;-68
2023/09/13 01:30:37;;;;;;;4.30;3.90;;;;;25.60;100130.00;;;;2077485;28;20461;-68
2023/09/13 01:31:37;;;;;;;4.53;4.10;;;;;25.60;100139.00;;;;2079652;28;20252;-68
2023/09/13 01:32:37;;;;;;;4.20;3.80;;;;;25.60;100128.00;;;;2080966;28;20526;-68
2023/09/13 01:33:38;;;;;;;4.97;4.20;;;;;25.60;100139.00;;;;2087291;28;20221;-68
2023/09/13 01:34:38;;;;;;;4.37;3.97;;;;;25.60;100141.00;;;;2100883;28;20216;-68
2023/09/13 01:35:38;;;;;;;4.17;3.83;;;;;25.60;100142.00;;;;2087159;28;20212;-68
2023/09/13 01:36:39;;;;;;;4.17;3.80;;;;;25.60;100136.00;;;;2096725;28;20234;-68
2023/09/13 01:37:39;;;;;;;5.00;4.60;;;;;25.60;100129.00;;;;2096316;28;20220;-68
2023/09/13 01:38:39;;;;;;;5.00;4.60;;;;;25.60;100077.00;;;;2095863;28;20289;-68
2023/09/13 01:39:40;;;;;;;4.10;3.80;;;;;25.60;100128.00;;;;2087874;28;20217;-68
2023/09/13 01:40:41;;;;;;;5.60;4.17;;;;;25.60;100139.00;;;;2078525;28;20300;-68
2023/09/13 01:41:53;;;;;;;4.43;4.03;;;;;25.60;100134.00;;;;2087907;28;20698;-68
2023/09/13 01:42:54;;;;;;;3.97;3.67;;;;;25.50;100128.00;;;;2085251;28;20243;-68
2023/09/13 01:43:55;;;;;;;4.10;3.80;;;;;25.60;100101.00;;;;2072680;28;20492;-68
2023/09/13 01:44:55;;;;;;;4.20;3.90;;;;;25.60;100138.00;;;;2069473;28;20966;-68
2023/09/13 01:45:55;;;;;;;4.70;4.30;;;;;25.60;100099.00;;;;2069529;28;20229;-68
2023/09/13 01:46:56;;;;;;;4.17;3.87;;;;;25.60;100087.00;;;;2074051;28;20213;-68
2023/09/13 01:47:56;;;;;;;4.57;4.17;;;;;25.60;100086.00;;;;2075414;28;20241;-68
2023/09/13 01:48:57;;;;;;;4.93;4.50;;;;;25.60;100145.00;;;;2068608;28;20285;-68
2023/09/13 01:49:57;;;;;;;4.77;4.37;;;;;25.60;100112.00;;;;2077424;28;20214;-68
2023/09/13 01:50:57;;;;;;;4.73;4.23;;;;;25.60;100149.00;;;;2075221;28;20229;-68
2023/09/13 01:51:58;;;;;;;4.33;3.93;;;;;25.60;100099.00;;;;2070737;28;20249;-68
2023/09/13 01:53:01;;;;;;;4.10;3.73;;;;;25.60;100144.00;;;;2081308;28;20213;-68
2023/09/13 01:54:02;;;;;;;4.60;4.20;;;;;25.60;100148.00;;;;2088674;28;20205;-68
2023/09/13 01:55:07;;;;;;;4.37;4.00;;;;;25.60;100147.00;;;;2089726;28;20478;-68
2023/09/13 01:56:07;;;;;;;4.80;4.40;;;;;25.60;100154.00;;;;2070134;28;20709;-68
2023/09/13 01:57:08;;;;;;;4.53;4.13;;;;;25.60;100155.00;;;;2087022;28;20523;-68
2023/09/13 01:58:08;;;;;;;4.70;4.30;;;;;25.60;100157.00;;;;2096040;28;20227;-68
2023/09/13 01:59:08;;;;;;;4.97;4.57;;;;;25.60;100143.00;;;;2091428;28;20216;-68
2023/09/13 02:00:09;;;;;;;4.10;3.80;;;;;25.60;100147.00;;;;2089958;28;20223;-68
2023/09/13 02:01:10;;;;;;;4.33;3.97;;;;;25.60;100155.00;;;;2086267;28;20212;-68
2023/09/13 02:02:10;;;;;;;4.53;4.13;;;;;25.60;100143.00;;;;2095641;28;20647;-68
2023/09/13 02:03:12;;;;;;;4.23;3.93;;;;;25.60;100150.00;;;;2102160;28;20215;-68
2023/09/13 02:04:12;;;;;;;4.60;4.20;;;;;25.60;100148.00;;;;2095804;28;20223;-68
2023/09/13 02:05:12;;;;;;;4.83;4.10;;;;;25.60;100145.00;;;;2096570;28;20511;-68
2023/09/13 02:06:13;;;;;;;4.63;4.20;;;;;25.60;100154.00;;;;2076923;28;20271;-68
2023/09/13 02:07:13;;;;;;;4.33;4.00;;;;;25.60;100101.00;;;;2087689;28;20224;-68
2023/09/13 02:08:13;;;;;;;4.60;4.20;;;;;25.50;100148.00;;;;2087192;28;20224;-68
2023/09/13 02:09:14;;;;;;;5.27;4.77;;;;;25.50;100153.00;;;;2086543;28;20772;-68
2023/09/13 02:10:14;;;;;;;4.80;4.10;;;;;25.60;100143.00;;;;2096576;28;20799;-68
2023/09/13 02:11:17;;;;;;;4.30;3.90;;;;;25.60;100147.00;;;;2085269;28;20247;-68
2023/09/13 02:12:17;;;;;;;4.63;4.23;;;;;25.60;100155.00;;;;2095569;28;20240;-68
2023/09/13 02:13:18;;;;;;;4.47;4.17;;;;;25.60;100150.00;;;;2094867;28;20460;-68
2023/09/13 02:14:18;;;;;;;4.17;3.87;;;;;25.50;100155.00;;;;2096314;28;20200;-68
2023/09/13 02:15:18;;;;;;;4.97;4.50;;;;;25.60;100150.00;;;;2096371;28;20232;-68
2023/09/13 02:16:20;;;;;;;4.90;4.50;;;;;25.60;100149.00;;;;2085637;28;20246;-68
2023/09/13 02:17:21;;;;;;;5.43;4.93;;;;;25.60;100152.00;;;;2097734;28;20218;-68
2023/09/13 02:18:21;;;;;;;4.40;4.00;;;;;25.60;100148.00;;;;2095621;28;20459;-68
2023/09/13 02:19:21;;;;;;;5.07;4.57;;;;;25.60;100150.00;;;;2096354;28;20235;-68
2023/09/13 02:20:22;;;;;;;4.97;4.57;;;;;25.60;100155.00;;;;2095604;28;20216;-68
2023/09/13 02:21:22;;;;;;;4.70;4.30;;;;;25.40;100143.00;;;;2092648;28;20216;-68
2023/09/13 02:22:22;;;;;;;4.97;4.57;;;;;25.60;100151.00;;;;2096007;28;20208;-68
2023/09/13 02:23:23;;;;;;;4.47;4.07;;;;;25.60;100150.00;;;;2095612;28;20249;-68
2023/09/13 02:24:23;;;;;;;4.40;4.00;;;;;25.60;100143.00;;;;2096334;28;20695;-68
2023/09/13 02:25:24;;;;;;;4.83;4.33;;;;;25.60;100150.00;;;;2095603;28;20572;-68
2023/09/13 02:26:24;;;;;;;4.57;4.17;;;;;25.60;100156.00;;;;2082023;28;20785;-68
2023/09/13 02:27:24;;;;;;;4.97;4.47;;;;;25.60;100151.00;;;;2095493;28;20742;-68
2023/09/13 02:28:25;;;;;;;4.60;4.20;;;;;25.60;100160.00;;;;2096172;28;20216;-68
2023/09/13 02:29:26;;;;;;;4.57;4.17;;;;;25.60;100151.00;;;;2099911;28;20583;-68
2023/09/13 02:30:26;;;;;;;4.47;4.07;;;;;25.60;100155.00;;;;2094961;28;20740;-68
2023/09/13 02:31:27;;;;;;;5.53;4.67;;;;;25.60;100150.00;;;;2078349;28;20270;-68
2023/09/13 02:32:27;;;;;;;4.63;4.33;;;;;25.60;100164.00;;;;2093104;28;20246;-68
2023/09/13 02:33:28;;;;;;;4.73;4.33;;;;;25.60;100154.00;;;;2096680;28;20459;-68
2023/09/13 02:34:28;;;;;;;5.30;4.80;;;;;25.60;100152.00;;;;2096627;28;20208;-68
2023/09/13 02:35:32;;;;;;;4.63;4.23;;;;;25.60;100161.00;;;;2096886;28;20214;-68
2023/09/13 02:36:32;;;;;;;4.87;4.47;;;;;25.60;100158.00;;;;2075330;28;20553;-68
2023/09/13 02:37:33;;;;;;;4.47;4.17;;;;;25.60;100161.00;;;;2085194;28;20463;-68
2023/09/13 02:38:33;;;;;;;4.40;4.00;;;;;25.60;100157.00;;;;2090667;28;20209;-68
2023/09/13 02:39:37;;;;;;;4.80;4.33;;;;;25.60;100158.00;;;;2096694;28;20218;-68
2023/09/13 02:40:37;;;;;;;5.07;4.67;;;;;25.50;100151.00;;;;2086571;28;20224;-68
2023/09/13 02:41:38;;;;;;;5.27;4.77;;;;;25.60;100121.00;;;;2087672;28;20554;-68
2023/09/13 02:42:38;;;;;;;4.30;4.00;;;;;25.60;100155.00;;;;2087359;28;20228;-68
2023/09/13 02:43:40;;;;;;;4.60;4.20;;;;;25.60;100120.00;;;;2096565;28;20212;-68
2023/09/13 02:44:40;;;;;;;5.40;4.90;;;;;25.60;100161.00;;;;2078895;28;20225;-68
2023/09/13 02:45:40;;;;;;;4.83;4.43;;;;;25.50;100159.00;;;;2069134;28;20222;-68
2023/09/13 02:46:41;;;;;;;4.83;4.43;;;;;25.50;100168.00;;;;2088274;28;20213;-68
2023/09/13 02:47:41;;;;;;;4.57;4.17;;;;;25.50;100171.00;;;;2082721;28;20229;-68
2023/09/13 02:48:42;;;;;;;4.77;4.40;;;;;25.60;100165.00;;;;2087526;28;20221;-68
2023/09/13 02:49:42;;;;;;;5.00;4.60;;;;;25.60;100165.00;;;;2096448;28;20224;-68
2023/09/13 02:50:42;;;;;;;4.70;4.30;;;;;25.50;100172.00;;;;2086325;28;20216;-68
2023/09/13 02:51:43;;;;;;;4.67;4.27;;;;;25.50;100173.00;;;;2087500;28;20231;-68
2023/09/13 02:52:43;;;;;;;4.77;4.37;;;;;25.50;100142.00;;;;2079484;28;20737;-68
2023/09/13 02:53:43;;;;;;;4.97;4.57;;;;;25.50;100180.00;;;;2083486;28;20232;-68
2023/09/13 02:54:44;;;;;;;5.07;4.67;;;;;25.50;100179.00;;;;2091930;28;20736;-68
2023/09/13 02:55:44;;;;;;;4.93;4.53;;;;;25.60;100130.00;;;;2086035;28;20853;-68
2023/09/13 02:56:45;;;;;;;4.80;4.40;;;;;25.50;100187.00;;;;2087513;28;20255;-68
2023/09/13 02:57:45;;;;;;;5.27;4.77;;;;;25.50;100172.00;;;;2079220;28;20300;-68
2023/09/13 02:58:46;;;;;;;5.00;4.60;;;;;25.50;100177.00;;;;2087557;28;20224;-68
2023/09/13 02:59:46;;;;;;;4.73;4.33;;;;;25.50;100179.00;;;;2094952;28;20211;-68
2023/09/13 03:00:47;;;;;;;5.17;4.77;;;;;25.50;100177.00;;;;2086280;28;20245;-68
2023/09/13 03:01:48;;;;;;;4.33;4.03;;;;;25.60;100174.00;;;;2095107;28;20694;-68
2023/09/13 03:02:51;;;;;;;5.03;4.53;;;;;25.60;100175.00;;;;2090028;28;20597;-68
2023/09/13 03:03:51;;;;;;;5.37;4.97;;;;;25.60;100171.00;;;;2081140;28;20518;-68
2023/09/13 03:04:52;;;;;;;4.93;4.53;;;;;25.60;100169.00;;;;2082786;28;20455;-68
2023/09/13 03:05:52;;;;;;;4.30;4.00;;;;;25.60;100174.00;;;;2081032;28;20279;-68
2023/09/13 03:06:52;;;;;;;5.17;4.77;;;;;25.60;100170.00;;;;2081298;28;20224;-68
2023/09/13 03:07:56;;;;;;;5.37;4.97;;;;;25.50;100179.00;;;;2087407;28;20248;-68
2023/09/13 03:08:57;;;;;;;5.77;5.27;;;;;25.60;100175.00;;;;2086864;28;20205;-68
2023/09/13 03:10:00;;;;;;;5.50;5.00;;;;;25.60;100175.00;;;;2087790;28;20463;-68
2023/09/13 03:11:11;;;;;;;4.70;4.30;;;;;25.60;100173.00;;;;2085850;28;20223;-68
2023/09/13 03:12:14;;;;;;;5.87;5.37;;;;;25.50;100169.00;;;;2087697;28;20451;-68
2023/09/13 03:13:15;;;;;;;5.37;4.87;;;;;25.60;100166.00;;;;2087936;28;20831;-68
2023/09/13 03:14:15;;;;;;;5.00;4.60;;;;;25.60;100170.00;;;;2097167;28;20475;-68
2023/09/13 03:15:15;;;;;;;4.27;3.97;;;;;25.60;100166.00;;;;2088765;28;20217;-68
2023/09/13 03:16:20;;;;;;;4.67;4.27;;;;;25.50;100165.00;;;;2089594;28;20578;-68
2023/09/13 03:17:20;;;;;;;4.80;4.40;;;;;25.60;100163.00;;;;2096053;28;20212;-68
2023/09/13 03:18:20;;;;;;;4.90;4.50;;;;;25.50;100168.00;;;;2095860;28;20477;-68
2023/09/13 03:19:21;;;;;;;5.00;4.60;;;;;25.50;100175.00;;;;2098451;28;20211;-68
2023/09/13 03:20:21;;;;;;;5.07;4.60;;;;;25.60;100172.00;;;;2096038;28;20220;-68
2023/09/13 03:21:21;;;;;;;4.93;4.53;;;;;25.50;100167.00;;;;2091977;28;20238;-68
2023/09/13 03:22:22;;;;;;;5.57;5.07;;;;;25.50;100171.00;;;;2096031;28;20299;-68
2023/09/13 03:23:22;;;;;;;5.30;4.90;;;;;25.50;100165.00;;;;2096404;28;20219;-68
2023/09/13 03:24:23;;;;;;;4.70;4.30;;;;;25.50;100163.00;;;;2090717;28;20306;-68
2023/09/13 03:25:23;;;;;;;5.57;5.07;;;;;25.50;100176.00;;;;2079097;28;20225;-68
2023/09/13 03:26:25;;;;;;;4.73;4.33;;;;;25.50;100173.00;;;;2083942;28;20216;-68
2023/09/13 03:27:25;;;;;;;4.83;4.43;;;;;25.60;100171.00;;;;2096031;28;20204;-68
2023/09/13 03:28:26;;;;;;;5.60;5.10;;;;;25.50;100171.00;;;;2096193;28;20480;-68
2023/09/13 03:29:26;;;;;;;5.03;4.63;;;;;25.60;100173.00;;;;2101187;28;20211;-68
2023/09/13 03:30:26;;;;;;;5.50;5.00;;;;;25.50;100176.00;;;;2096793;28;20208;-68
2023/09/13 03:31:27;;;;;;;5.40;4.90;;;;;25.50;100178.00;;;;2093140;28;20212;-68
2023/09/13 03:32:29;;;;;;;4.70;4.30;;;;;25.50;100175.00;;;;2099110;28;20208;-68
2023/09/13 03:33:29;;;;;;;5.40;4.90;;;;;25.50;100126.00;;;;2096041;28;20246;-68
2023/09/13 03:34:29;;;;;;;6.00;5.23;;;;;25.50;100146.00;;;;2101194;28;20480;-68
2023/09/13 03:35:30;;;;;;;4.80;4.40;;;;;25.60;100180.00;;;;2089923;28;20212;-68
2023/09/13 03:36:30;;;;;;;5.80;5.30;;;;;25.60;100179.00;;;;2085837;28;20223;-68
2023/09/13 03:37:32;;;;;;;5.63;5.13;;;;;25.50;100183.00;;;;2095935;28;20208;-68
2023/09/13 03:38:33;;;;;;;5.40;4.90;;;;;25.50;100186.00;;;;2095966;28;20683;-68
2023/09/13 03:39:34;;;;;;;4.87;4.47;;;;;25.50;100175.00;;;;2096046;28;20447;-68
2023/09/13 03:40:34;;;;;;;5.10;4.70;;;;;25.50;100180.00;;;;2095543;28;20250;-68
2023/09/13 03:41:34;;;;;;;5.43;4.93;;;;;25.50;100185.00;;;;2089901;28;20454;-68
2023/09/13 03:42:35;;;;;;;5.40;4.90;;;;;25.50;100185.00;;;;2096147;28;20215;-68
2023/09/13 03:43:35;;;;;;;5.77;5.30;;;;;25.50;100187.00;;;;2096308;28;20224;-68
2023/09/13 03:44:36;;;;;;;5.17;4.77;;;;;25.60;100188.00;;;;2096095;28;20261;-68
2023/09/13 03:45:36;;;;;;;5.00;4.50;;;;;25.50;100189.00;;;;2085785;28;20211;-68
2023/09/13 03:46:37;;;;;;;5.60;5.10;;;;;25.60;100191.00;;;;2094285;28;20224;-68
2023/09/13 03:47:37;;;;;;;4.67;4.27;;;;;25.50;100195.00;;;;2087152;28;20228;-68
2023/09/13 03:48:38;;;;;;;5.30;4.80;;;;;25.60;100185.00;;;;2086972;28;20217;-68
2023/09/13 03:49:38;;;;;;;5.00;4.60;;;;;25.50;100189.00;;;;2096369;28;20224;-68
2023/09/13 03:50:38;;;;;;;5.27;4.87;;;;;25.50;100185.00;;;;2088376;28;20217;-68
2023/09/13 03:51:39;;;;;;;5.77;5.27;;;;;25.50;100186.00;;;;2092017;28;20214;-68
2023/09/13 03:52:39;;;;;;;5.40;5.00;;;;;25.50;100190.00;;;;2102052;28;20232;-68
2023/09/13 03:53:39;;;;;;;4.50;4.10;;;;;25.50;100186.00;;;;2096228;28;20208;-68
2023/09/13 03:54:40;;;;;;;5.70;5.10;;;;;25.50;100063.00;;;;2096128;28;20216;-68
2023/09/13 03:55:40;;;;;;;4.50;4.10;;;;;25.50;100187.00;;;;2085893;28;20235;-68
2023/09/13 03:56:41;;;;;;;5.50;5.00;;;;;25.50;100187.00;;;;2096055;28;20229;-68
2023/09/13 03:57:41;;;;;;;5.00;4.60;;;;;25.50;100196.00;;;;2096291;28;20809;-68
2023/09/13 03:58:41;;;;;;;5.43;5.00;;;;;25.50;100160.00;;;;2095740;28;20573;-68
2023/09/13 03:59:42;;;;;;;5.33;4.93;;;;;25.60;100196.00;;;;2096004;28;20243;-68
2023/09/13 04:00:42;;;;;;;5.33;4.83;;;;;25.50;100193.00;;;;2085971;28;20217;-68
2023/09/13 04:01:43;;;;;;;5.10;4.70;;;;;25.60;100187.00;;;;2094747;28;20635;-68
2023/09/13 04:02:43;;;;;;;5.10;4.70;;;;;25.50;100188.00;;;;2095015;28;20589;-68
2023/09/13 04:03:43;;;;;;;4.83;4.43;;;;;25.60;100147.00;;;;2096382;28;20216;-68
2023/09/13 04:04:44;;;;;;;5.40;4.90;;;;;25.50;100193.00;;;;2087509;28;20204;-68
2023/09/13 04:05:44;;;;;;;5.80;4.60;;;;;25.50;100200.00;;;;2080390;28;20215;-68
2023/09/13 04:06:44;;;;;;;5.40;4.90;;;;;25.50;100188.00;;;;2088627;28;20558;-68
2023/09/13 04:07:45;;;;;;;5.03;4.63;;;;;25.60;100193.00;;;;2092309;28;20224;-68
2023/09/13 04:08:45;;;;;;;5.40;4.97;;;;;25.60;100192.00;;;;2096971;28;20239;-68
2023/09/13 04:09:45;;;;;;;5.27;4.77;;;;;25.50;100193.00;;;;2094625;28;20220;-68
2023/09/13 04:10:46;;;;;;;5.30;4.90;;;;;25.50;100184.00;;;;2086831;28;20262;-68
2023/09/13 04:11:46;;;;;;;4.90;4.50;;;;;25.50;100183.00;;;;2097553;28;20994;-68
2023/09/13 04:12:46;;;;;;;4.50;4.20;;;;;25.50;100187.00;;;;2097729;28;20222;-68
2023/09/13 04:13:47;;;;;;;4.77;4.33;;;;;25.60;100187.00;;;;2100087;28;20212;-68
2023/09/13 04:14:47;;;;;;;5.10;4.60;;;;;25.50;100189.00;;;;2098538;28;20213;-68
2023/09/13 04:15:47;;;;;;;5.00;4.50;;;;;25.60;100193.00;;;;2092300;28;20236;-68
2023/09/13 04:16:48;;;;;;;5.23;4.77;;;;;25.60;100193.00;;;;2092559;28;20291;-68
2023/09/13 04:17:48;;;;;;;4.70;4.30;;;;;25.50;100190.00;;;;2092172;28;20223;-68
2023/09/13 04:18:48;;;;;;;4.67;4.27;;;;;25.60;100197.00;;;;2097071;28;20227;-68
2023/09/13 04:19:49;;;;;;;5.10;4.60;;;;;25.60;100192.00;;;;2088888;28;20638;-68
2023/09/13 04:20:49;;;;;;;5.27;4.87;;;;;25.60;100192.00;;;;2078072;28;20665;-68
2023/09/13 04:21:49;;;;;;;4.93;4.53;;;;;25.60;100201.00;;;;2099918;28;20204;-68
2023/09/13 04:22:50;;;;;;;5.87;5.37;;;;;25.50;100193.00;;;;2097874;28;20216;-68
2023/09/13 04:23:50;;;;;;;5.10;4.70;;;;;25.50;100195.00;;;;2102458;28;20223;-68
2023/09/13 04:24:50;;;;;;;5.07;4.67;;;;;25.50;100205.00;;;;2097441;28;20743;-68
2023/09/13 04:25:51;;;;;;;4.70;4.30;;;;;25.50;100206.00;;;;2087032;28;20212;-68
2023/09/13 04:26:51;;;;;;;5.80;5.30;;;;;25.50;100200.00;;;;2097206;28;20211;-68
2023/09/13 04:27:51;;;;;;;5.63;5.23;;;;;25.50;100198.00;;;;2097494;28;20743;-68
2023/09/13 04:28:52;;;;;;;5.77;5.27;;;;;25.50;100197.00;;;;2097188;28;20920;-68
2023/09/13 04:29:54;;;;;;;6.00;5.50;;;;;25.50;100202.00;;;;2097574;28;20711;-68
2023/09/13 04:30:58;;;;;;;6.00;5.50;;;;;25.50;100197.00;;;;2087383;28;20685;-68
2023/09/13 04:31:58;;;;;;;4.80;4.40;;;;;25.50;100202.00;;;;2097419;28;20450;-68
2023/09/13 04:33:00;;;;;;;5.20;4.70;;;;;25.60;100198.00;;;;2101486;28;20446;-68
2023/09/13 04:34:01;;;;;;;5.70;5.20;;;;;25.60;100196.00;;;;2091914;28;20205;-68
2023/09/13 04:35:01;;;;;;;5.03;4.63;;;;;25.50;100198.00;;;;2079947;28;20463;-68
2023/09/13 04:36:02;;;;;;;5.27;4.80;;;;;25.50;100194.00;;;;2079835;28;20291;-68
2023/09/13 04:37:04;;;;;;;5.07;4.57;;;;;25.50;100193.00;;;;2097481;28;20641;-68
2023/09/13 04:38:05;;;;;;;5.13;4.63;;;;;25.50;100201.00;;;;2097004;28;20208;-68
2023/09/13 04:39:06;;;;;;;4.87;4.43;;;;;25.50;100199.00;;;;2089626;28;20471;-68
2023/09/13 04:40:07;;;;;;;5.03;4.53;;;;;25.50;100186.00;;;;2091092;28;20629;-68
2023/09/13 04:41:14;;;;;;;5.07;4.67;;;;;25.50;100201.00;;;;2091644;28;20243;-68
2023/09/13 04:42:14;;;;;;;5.17;4.67;;;;;25.50;100200.00;;;;2099089;28;20276;-68
2023/09/13 04:43:14;;;;;;;5.20;4.70;;;;;25.50;100200.00;;;;2097455;28;20450;-68
2023/09/13 04:44:15;;;;;;;5.23;4.73;;;;;25.60;100200.00;;;;2097092;28;20706;-68
2023/09/13 04:45:15;;;;;;;5.17;4.67;;;;;25.50;100201.00;;;;2097472;28;20213;-68
2023/09/13 04:46:15;;;;;;;5.13;4.63;;;;;25.50;100193.00;;;;2086917;28;20208;-68
2023/09/13 04:47:18;;;;;;;4.70;4.30;;;;;25.50;100200.00;;;;2096507;28;20228;-68
2023/09/13 04:48:19;;;;;;;4.80;4.40;;;;;25.50;100147.00;;;;2096396;28;20219;-68
2023/09/13 04:49:19;;;;;;;4.60;4.20;;;;;25.50;100196.00;;;;2101459;28;20446;-68
2023/09/13 04:50:19;;;;;;;5.40;4.90;;;;;25.50;100199.00;;;;2098714;28;20208;-68
2023/09/13 04:51:20;;;;;;;5.03;4.63;;;;;25.50;100200.00;;;;2087567;28;20772;-68
2023/09/13 04:52:20;;;;;;;4.87;4.47;;;;;25.50;100198.00;;;;2097334;28;20323;-68
2023/09/13 04:53:21;;;;;;;5.30;4.80;;;;;25.50;100191.00;;;;2096993;28;20675;-68
2023/09/13 04:54:22;;;;;;;5.47;4.97;;;;;25.50;100204.00;;;;2097411;28;20212;-68
2023/09/13 04:55:23;;;;;;;5.00;4.60;;;;;25.50;100203.00;;;;2096994;28;20465;-68
2023/09/13 04:56:23;;;;;;;4.93;4.53;;;;;25.50;100206.00;;;;2087242;28;20485;-68
2023/09/13 04:57:24;;;;;;;5.33;4.90;;;;;25.60;100210.00;;;;2096914;28;20457;-68
2023/09/13 04:58:24;;;;;;;4.90;4.50;;;;;25.60;100179.00;;;;2097250;28;20216;-68
2023/09/13 04:59:25;;;;;;;5.17;4.67;;;;;25.50;100202.00;;;;2097548;28;20230;-68
2023/09/13 05:00:26;;;;;;;5.17;4.77;;;;;25.50;100208.00;;;;2082712;28;20310;-68
2023/09/13 05:01:27;;;;;;;5.20;4.70;;;;;25.50;100206.00;;;;2070819;28;20244;-68
2023/09/13 05:02:27;;;;;;;5.13;4.73;;;;;25.50;100206.00;;;;2099065;28;20570;-68
2023/09/13 05:03:27;;;;;;;5.47;4.97;;;;;25.50;100216.00;;;;2087878;28;20580;-68
2023/09/13 05:04:28;;;;;;;5.27;4.80;;;;;25.50;100210.00;;;;2088250;28;20240;-68